Time;durP1;ratioP1;P1;durP2;ratioP2;P2;SDS_P1;SDS_P2;PMS_P1;PMS_P2;Temp;Humidity;BMP_temperature;BMP_pressure;BME280_temperature;BME280_humidity;BME280_pressure;Samples;Min_cycle;Max_cycle;Signal;HPM_P1;HPM_P2
2022/01/07 00:00:39;;;;;;;32.30;11.33;;;-1.10;99.90;;;;;;5081639;28;20452;-74
2022/01/07 00:03:06;;;;;;;24.83;11.10;;;-1.00;99.90;;;;;;5070543;28;20460;-74
2022/01/07 00:05:33;;;;;;;36.03;11.93;;;-1.10;99.90;;;;;;5069767;28;20494;-74
2022/01/07 00:08:00;;;;;;;20.33;10.93;;;-1.10;99.90;;;;;;5070578;28;20506;-74
2022/01/07 00:10:26;;;;;;;24.30;11.13;;;-1.20;99.90;;;;;;5074068;28;20888;-74
2022/01/07 00:12:55;;;;;;;26.67;11.70;;;-1.20;99.90;;;;;;5082210;28;20855;-74
2022/01/07 00:15:22;;;;;;;29.73;12.20;;;-1.20;99.90;;;;;;5089767;28;20985;-74
2022/01/07 00:17:49;;;;;;;26.73;12.57;;;-1.10;99.90;;;;;;5089741;28;20875;-74
2022/01/07 00:20:17;;;;;;;22.83;10.57;;;-1.10;99.90;;;;;;5083213;28;20534;-74
2022/01/07 00:22:44;;;;;;;27.40;12.23;;;-1.20;99.90;;;;;;5070420;28;20565;-74
2022/01/07 00:25:13;;;;;;;20.90;10.83;;;-1.20;99.90;;;;;;5069954;28;20467;-74
2022/01/07 00:27:40;;;;;;;35.63;12.50;;;-1.10;99.90;;;;;;5071858;28;20493;-74
2022/01/07 00:30:11;;;;;;;31.33;11.47;;;-1.10;99.90;;;;;;5085606;28;20451;-74
2022/01/07 00:32:38;;;;;;;24.70;11.57;;;-1.20;99.90;;;;;;5089827;28;20455;-74
2022/01/07 00:35:06;;;;;;;31.43;11.73;;;-1.10;99.90;;;;;;5089726;28;20850;-74
2022/01/07 00:37:34;;;;;;;23.90;10.80;;;-1.10;99.90;;;;;;5090024;28;20499;-74
2022/01/07 00:40:00;;;;;;;26.67;11.20;;;-1.10;99.90;;;;;;5084891;28;20451;-74
2022/01/07 00:42:27;;;;;;;23.80;11.27;;;-1.10;99.90;;;;;;5070005;28;20995;-74
2022/01/07 00:44:54;;;;;;;31.23;11.93;;;-1.10;99.90;;;;;;5081166;28;20467;-74
2022/01/07 00:47:21;;;;;;;21.50;10.40;;;-1.10;99.90;;;;;;5090599;28;20443;-74
2022/01/07 00:49:48;;;;;;;24.20;10.30;;;-1.10;99.90;;;;;;5087727;28;20549;-74
2022/01/07 00:52:15;;;;;;;31.50;10.77;;;-1.10;99.90;;;;;;5070117;28;20477;-75
2022/01/07 00:54:42;;;;;;;22.20;11.20;;;-1.10;99.90;;;;;;5070927;28;20994;-72
2022/01/07 00:57:08;;;;;;;19.90;10.20;;;-1.10;99.90;;;;;;5069349;28;20477;-73
2022/01/07 00:59:35;;;;;;;28.30;10.93;;;-1.20;99.90;;;;;;5075035;28;20973;-73
2022/01/07 01:02:02;;;;;;;29.53;10.90;;;-1.20;99.90;;;;;;5090015;28;20459;-73
2022/01/07 01:04:30;;;;;;;24.90;10.43;;;-1.20;99.90;;;;;;5079612;28;20460;-75
2022/01/07 01:06:57;;;;;;;31.63;10.30;;;-1.20;99.90;;;;;;5069641;28;20487;-75
2022/01/07 01:09:24;;;;;;;26.53;10.50;;;-1.20;99.90;;;;;;5072088;28;20543;-75
2022/01/07 01:11:50;;;;;;;19.03;10.93;;;-1.10;99.90;;;;;;5089537;28;21088;-75
2022/01/07 01:14:17;;;;;;;29.70;10.20;;;-1.20;99.90;;;;;;5089869;28;20447;-75
2022/01/07 01:16:46;;;;;;;28.80;11.60;;;-1.10;99.90;;;;;;5089719;28;20544;-75
2022/01/07 01:19:13;;;;;;;18.80;10.00;;;-1.10;99.90;;;;;;5078232;28;20466;-75
2022/01/07 01:21:42;;;;;;;23.13;10.37;;;-1.10;99.90;;;;;;5072296;28;20455;-75
2022/01/07 01:24:08;;;;;;;19.03;9.10;;;-1.10;99.90;;;;;;5069371;28;20451;-75
2022/01/07 01:26:35;;;;;;;25.80;8.63;;;-1.10;99.90;;;;;;5080465;28;20527;-75
2022/01/07 01:29:02;;;;;;;24.57;8.10;;;-1.00;99.90;;;;;;5081563;28;20807;-75
2022/01/07 01:31:30;;;;;;;23.10;8.40;;;-0.90;99.90;;;;;;5086885;28;20606;-75
2022/01/07 01:33:57;;;;;;;21.97;8.53;;;-0.90;99.90;;;;;;5093219;28;20507;-75
2022/01/07 01:36:24;;;;;;;22.43;8.50;;;-0.90;99.90;;;;;;5076531;28;20504;-75
2022/01/07 01:38:52;;;;;;;21.73;8.53;;;-0.80;99.90;;;;;;5072965;28;20451;-75
2022/01/07 01:41:19;;;;;;;26.13;8.40;;;-0.90;99.90;;;;;;5088563;28;20511;-75
2022/01/07 01:43:48;;;;;;;19.83;8.27;;;-0.90;99.90;;;;;;5092117;28;20462;-75
2022/01/07 01:46:15;;;;;;;19.30;7.60;;;-0.90;99.90;;;;;;5090205;28;20495;-75
2022/01/07 01:48:42;;;;;;;24.07;7.90;;;-0.90;99.90;;;;;;5092545;28;20454;-75
2022/01/07 01:51:09;;;;;;;14.30;7.10;;;-0.90;99.90;;;;;;5083860;28;20949;-75
2022/01/07 01:53:35;;;;;;;17.17;7.87;;;-0.90;99.90;;;;;;5092768;28;20863;-75
2022/01/07 01:56:04;;;;;;;17.70;7.20;;;-0.90;99.90;;;;;;5088033;28;20512;-75
2022/01/07 01:58:31;;;;;;;15.50;7.10;;;-0.90;99.90;;;;;;5065071;28;20513;-75
2022/01/07 02:00:57;;;;;;;14.00;7.80;;;-0.80;99.90;;;;;;5072568;28;20459;-75
2022/01/07 02:03:24;;;;;;;25.20;7.00;;;-0.80;99.90;;;;;;5072692;28;20920;-74
2022/01/07 02:05:51;;;;;;;23.13;7.77;;;-0.80;99.90;;;;;;5101521;22;20917;-77
2022/01/07 02:08:18;;;;;;;14.80;7.30;;;-0.80;99.90;;;;;;5093541;28;20508;-77
2022/01/07 02:10:44;;;;;;;26.13;7.80;;;-0.70;99.90;;;;;;5103276;28;20445;-77
2022/01/07 02:13:15;;;;;;;20.57;7.53;;;-0.80;99.90;;;;;;5113200;28;20925;-77
2022/01/07 02:15:42;;;;;;;20.13;7.57;;;-0.70;99.90;;;;;;5090978;28;20520;-76
2022/01/07 02:18:09;;;;;;;24.53;8.07;;;-0.70;99.90;;;;;;5086055;28;20448;-77
2022/01/07 02:20:37;;;;;;;21.53;7.83;;;-0.70;99.90;;;;;;5075339;28;20447;-77
2022/01/07 02:23:04;;;;;;;20.30;7.80;;;-0.80;99.90;;;;;;5074164;28;20451;-78
2022/01/07 02:25:31;;;;;;;22.73;8.30;;;-0.80;99.90;;;;;;5072956;28;20467;-77
2022/01/07 02:27:57;;;;;;;21.80;8.53;;;-0.80;99.90;;;;;;5077096;28;20462;-77
2022/01/07 02:30:26;;;;;;;24.27;7.97;;;-0.80;99.90;;;;;;5079909;28;20451;-77
2022/01/07 02:32:54;;;;;;;14.57;7.00;;;-0.70;99.90;;;;;;5072443;28;20542;-76
2022/01/07 02:35:22;;;;;;;24.00;10.00;;;-0.70;99.90;;;;;;5072220;28;20699;-76
2022/01/07 02:37:50;;;;;;;21.07;8.70;;;-0.70;99.90;;;;;;5073512;28;20456;-76
2022/01/07 02:40:17;;;;;;;20.57;8.53;;;-0.60;99.90;;;;;;5079068;28;20481;-77
2022/01/07 02:42:44;;;;;;;26.60;11.80;;;-0.50;99.90;;;;;;5082697;28;20501;-76
2022/01/07 02:45:13;;;;;;;26.00;10.33;;;-0.40;99.90;;;;;;5072572;28;20473;-76
2022/01/07 02:47:49;;;;;;;24.43;10.70;;;-0.30;99.90;;;;;;5080027;28;20455;-76
2022/01/07 02:50:17;;;;;;;30.60;11.40;;;-0.20;99.90;;;;;;5084202;28;20455;-79
2022/01/07 02:52:44;;;;;;;31.30;12.80;;;-0.10;99.90;;;;;;5091881;28;20488;-77
2022/01/07 02:55:13;;;;;;;26.83;11.27;;;-0.10;99.90;;;;;;5091995;28;21049;-76
2022/01/07 02:57:40;;;;;;;36.27;11.87;;;0.00;99.90;;;;;;5083935;28;20525;-76
2022/01/07 03:00:09;;;;;;;29.30;10.40;;;0.00;99.90;;;;;;5084230;28;20885;-77
2022/01/07 03:02:35;;;;;;;38.47;11.40;;;0.10;99.90;;;;;;5076145;28;20794;-77
2022/01/07 03:05:02;;;;;;;22.77;11.03;;;0.00;99.90;;;;;;5073177;28;20444;-77
2022/01/07 03:07:29;;;;;;;28.23;13.00;;;0.00;99.90;;;;;;5073458;28;20483;-77
2022/01/07 03:09:56;;;;;;;31.63;14.87;;;0.00;99.90;;;;;;5080983;28;20530;-77
2022/01/07 03:12:24;;;;;;;45.63;14.97;;;-0.10;99.90;;;;;;5073935;28;20966;-77
2022/01/07 03:14:51;;;;;;;43.00;14.03;;;-0.10;99.90;;;;;;5081375;28;20489;-77
2022/01/07 03:17:17;;;;;;;33.43;14.60;;;0.00;99.90;;;;;;5092225;28;20474;-77
2022/01/07 03:19:44;;;;;;;41.40;15.07;;;0.00;99.90;;;;;;5090375;28;20447;-76
2022/01/07 03:22:11;;;;;;;38.13;15.00;;;0.00;99.90;;;;;;5072446;28;20452;-77
2022/01/07 03:24:38;;;;;;;40.53;14.90;;;0.00;99.90;;;;;;5072430;28;20490;-77
2022/01/07 03:27:05;;;;;;;33.10;15.67;;;0.00;99.90;;;;;;5084649;28;20459;-77
2022/01/07 03:29:33;;;;;;;40.57;15.80;;;0.20;99.90;;;;;;5076395;28;20791;-78
2022/01/07 03:32:00;;;;;;;36.10;15.30;;;0.00;99.90;;;;;;5072564;28;20452;-76
2022/01/07 03:34:26;;;;;;;31.83;13.80;;;0.10;99.90;;;;;;5071042;28;20456;-77
2022/01/07 03:36:53;;;;;;;28.73;13.77;;;0.00;99.90;;;;;;5079026;28;20544;-77
2022/01/07 03:39:20;;;;;;;40.20;14.17;;;0.00;99.90;;;;;;5079021;28;20451;-76
2022/01/07 03:41:46;;;;;;;24.90;12.83;;;0.00;99.90;;;;;;5091189;28;20863;-77
2022/01/07 03:44:13;;;;;;;32.70;15.80;;;0.00;99.90;;;;;;5091713;28;20451;-77
2022/01/07 03:46:41;;;;;;;35.83;15.20;;;0.10;99.90;;;;;;5087549;28;20466;-77
2022/01/07 03:49:08;;;;;;;42.87;17.87;;;0.20;99.90;;;;;;5085134;28;20521;-77
2022/01/07 03:51:34;;;;;;;49.63;17.90;;;0.10;99.90;;;;;;5071173;28;20455;-78
2022/01/07 03:54:01;;;;;;;64.03;18.97;;;0.10;99.90;;;;;;5070843;28;20452;-76
2022/01/07 03:56:28;;;;;;;49.43;21.60;;;0.50;99.90;;;;;;5083205;28;20547;-76
2022/01/07 03:58:54;;;;;;;52.30;21.40;;;0.00;99.90;;;;;;5075241;28;20446;-76
2022/01/07 04:01:21;;;;;;;55.40;21.50;;;-0.10;99.90;;;;;;5087410;28;20448;-77
2022/01/07 04:03:49;;;;;;;46.00;20.87;;;0.00;99.90;;;;;;5071555;28;20513;-76
2022/01/07 04:06:20;;;;;;;61.10;20.80;;;-0.10;99.90;;;;;;5082521;28;20528;-76
2022/01/07 04:08:47;;;;;;;54.87;21.50;;;-0.10;99.90;;;;;;5088907;28;20478;-76
2022/01/07 04:11:13;;;;;;;61.57;20.43;;;-0.10;99.90;;;;;;5071378;28;20452;-76
2022/01/07 04:13:40;;;;;;;45.57;19.17;;;-0.10;99.90;;;;;;5071087;28;20456;-76
2022/01/07 04:16:07;;;;;;;51.03;19.90;;;-0.10;99.90;;;;;;5081889;28;20490;-76
2022/01/07 04:18:34;;;;;;;45.63;18.40;;;-0.10;99.90;;;;;;5090332;28;20450;-77
2022/01/07 04:21:02;;;;;;;50.47;18.90;;;-0.10;99.90;;;;;;5080835;28;20517;-78
2022/01/07 04:23:28;;;;;;;45.37;17.90;;;-0.10;99.90;;;;;;5071638;28;20931;-77
2022/01/07 04:25:55;;;;;;;46.13;19.53;;;-0.10;99.90;;;;;;5079649;28;20874;-77
2022/01/07 04:28:22;;;;;;;44.23;19.80;;;0.00;99.90;;;;;;5085097;28;20504;-77
2022/01/07 04:30:49;;;;;;;50.10;19.33;;;0.00;99.90;;;;;;5071265;28;20936;-77
2022/01/07 04:33:24;;;;;;;45.60;18.40;;;-0.10;99.90;;;;;;5071551;28;21114;-77
2022/01/07 04:35:51;;;;;;;57.53;18.50;;;0.00;99.90;;;;;;5079871;28;20482;-76
2022/01/07 04:38:20;;;;;;;45.40;18.97;;;0.00;99.90;;;;;;5090355;28;20504;-76
2022/01/07 04:40:46;;;;;;;45.27;18.77;;;0.00;99.90;;;;;;5070692;28;20947;-77
2022/01/07 04:43:13;;;;;;;50.53;18.90;;;0.00;99.90;;;;;;5070744;28;20494;-77
2022/01/07 04:45:40;;;;;;;38.63;17.30;;;0.00;99.90;;;;;;5078843;28;20466;-77
2022/01/07 04:48:07;;;;;;;45.30;17.20;;;0.00;99.90;;;;;;5088527;28;20801;-77
2022/01/07 04:50:34;;;;;;;38.43;16.80;;;0.10;99.90;;;;;;5091309;28;20951;-77
2022/01/07 04:53:01;;;;;;;45.40;16.47;;;0.00;99.90;;;;;;5091585;28;20549;-77
2022/01/07 04:55:36;;;;;;;43.27;18.43;;;0.00;99.90;;;;;;5089405;28;20504;-77
2022/01/07 04:58:03;;;;;;;42.77;16.77;;;0.00;99.90;;;;;;5074954;28;20483;-78
2022/01/07 05:00:30;;;;;;;44.23;17.60;;;0.10;99.90;;;;;;5075963;28;20454;-78
2022/01/07 05:02:57;;;;;;;48.97;18.03;;;0.10;99.90;;;;;;5091837;28;20857;-77
2022/01/07 05:05:23;;;;;;;43.67;17.90;;;0.20;99.90;;;;;;5089168;28;20450;-77
2022/01/07 05:07:50;;;;;;;45.27;17.93;;;0.10;99.90;;;;;;5079447;28;20451;-77
2022/01/07 05:10:17;;;;;;;47.13;17.60;;;0.10;99.90;;;;;;5074541;28;20455;-77
2022/01/07 05:12:46;;;;;;;42.20;17.67;;;0.10;99.90;;;;;;5074968;28;20505;-77
2022/01/07 05:15:13;;;;;;;50.73;20.13;;;0.10;99.90;;;;;;5078094;28;20466;-77
2022/01/07 05:17:40;;;;;;;54.30;18.60;;;0.10;99.90;;;;;;5083963;28;20483;-78
2022/01/07 05:20:08;;;;;;;47.53;19.70;;;0.10;99.90;;;;;;5075536;28;20448;-77
2022/01/07 05:22:35;;;;;;;39.57;18.40;;;0.10;99.90;;;;;;5075579;28;20475;-77
2022/01/07 05:25:02;;;;;;;41.40;16.50;;;0.10;99.90;;;;;;5081494;28;21090;-78
2022/01/07 05:27:28;;;;;;;61.83;20.23;;;0.10;99.90;;;;;;5093184;28;20524;-78
2022/01/07 05:29:56;;;;;;;40.50;18.80;;;0.10;99.90;;;;;;5095090;28;20458;-77
2022/01/07 05:32:23;;;;;;;50.50;18.37;;;0.10;99.90;;;;;;5088906;28;20459;-77
2022/01/07 05:34:50;;;;;;;49.53;18.67;;;0.10;99.90;;;;;;5076700;28;20455;-78
2022/01/07 05:37:16;;;;;;;45.77;18.93;;;0.10;99.90;;;;;;5075880;28;20490;-78
2022/01/07 05:39:43;;;;;;;43.07;17.67;;;0.10;99.90;;;;;;5085510;28;20454;-77
2022/01/07 05:42:10;;;;;;;38.77;17.17;;;0.10;99.90;;;;;;5094221;28;20454;-77
2022/01/07 05:44:37;;;;;;;42.00;13.73;;;0.10;99.90;;;;;;5079603;28;20455;-77
2022/01/07 05:47:05;;;;;;;37.17;16.50;;;0.10;99.90;;;;;;5074663;28;20464;-78
2022/01/07 05:49:32;;;;;;;39.90;17.13;;;0.20;99.90;;;;;;5074480;28;20906;-78
2022/01/07 05:51:59;;;;;;;33.17;16.27;;;0.20;99.90;;;;;;5092224;28;20454;-78
2022/01/07 05:54:26;;;;;;;34.10;15.73;;;0.20;99.90;;;;;;5083726;28;20459;-78
2022/01/07 05:56:52;;;;;;;39.27;15.57;;;0.20;99.90;;;;;;5076589;28;20486;-78
2022/01/07 05:59:19;;;;;;;35.03;14.67;;;0.20;99.90;;;;;;5075220;28;20505;-77
2022/01/07 06:01:46;;;;;;;39.03;17.10;;;0.20;99.90;;;;;;5077477;28;20459;-78
2022/01/07 06:04:14;;;;;;;39.00;15.97;;;0.20;99.90;;;;;;5087477;28;20450;-78
2022/01/07 06:06:40;;;;;;;43.87;16.17;;;0.20;99.90;;;;;;5082492;28;20583;-78
2022/01/07 06:09:07;;;;;;;36.90;16.53;;;0.30;99.90;;;;;;5079839;28;20509;-78
2022/01/07 06:11:33;;;;;;;34.27;16.27;;;0.20;99.90;;;;;;5079692;28;20457;-77
2022/01/07 06:14:00;;;;;;;30.53;15.97;;;0.20;99.90;;;;;;5086757;28;20505;-78
2022/01/07 06:16:27;;;;;;;43.63;17.10;;;0.20;99.90;;;;;;5079511;28;20531;-79
2022/01/07 06:18:54;;;;;;;44.03;17.07;;;0.20;99.90;;;;;;5092814;28;20473;-78
2022/01/07 06:21:23;;;;;;;37.20;15.60;;;0.20;99.90;;;;;;5081643;28;20535;-78
2022/01/07 06:23:50;;;;;;;34.37;14.20;;;0.20;99.90;;;;;;5081655;28;20487;-78
2022/01/07 06:26:17;;;;;;;23.23;11.73;;;0.20;99.90;;;;;;5096041;28;20493;-78
2022/01/07 06:28:44;;;;;;;24.37;10.03;;;0.30;99.90;;;;;;5076001;28;20460;-78
2022/01/07 06:31:11;;;;;;;26.60;9.77;;;0.40;99.90;;;;;;5092310;28;20463;-78
2022/01/07 06:33:38;;;;;;;21.20;9.70;;;0.50;99.90;;;;;;5091076;28;20554;-78
2022/01/07 06:36:05;;;;;;;24.30;7.63;;;0.60;99.90;;;;;;5095977;28;20494;-78
2022/01/07 06:38:33;;;;;;;22.33;9.70;;;0.70;99.90;;;;;;5095391;28;20447;-78
2022/01/07 06:41:00;;;;;;;20.30;7.50;;;0.70;99.90;;;;;;5095916;28;20451;-77
2022/01/07 06:43:27;;;;;;;24.00;9.47;;;0.80;99.90;;;;;;5092967;28;20446;-77
2022/01/07 06:45:53;;;;;;;18.70;7.37;;;0.80;99.90;;;;;;5094272;28;20470;-77
2022/01/07 06:48:20;;;;;;;26.67;9.30;;;0.90;99.90;;;;;;5089739;28;20486;-78
2022/01/07 06:50:47;;;;;;;16.30;8.60;;;0.80;99.90;;;;;;5087118;28;20450;-78
2022/01/07 06:53:14;;;;;;;19.10;9.70;;;0.80;99.90;;;;;;5094342;28;20456;-78
2022/01/07 06:55:42;;;;;;;24.90;11.23;;;0.80;99.90;;;;;;5091562;28;21271;-78
2022/01/07 06:58:08;;;;;;;27.00;10.40;;;0.70;99.90;;;;;;5080513;28;21225;-79
2022/01/07 07:00:35;;;;;;;17.00;8.90;;;0.70;99.90;;;;;;5075151;28;20559;-76
2022/01/07 07:03:02;;;;;;;25.43;10.67;;;0.70;99.90;;;;;;5086207;28;20872;-75
2022/01/07 07:05:28;;;;;;;24.07;10.50;;;0.60;99.90;;;;;;5088459;28;21097;-76
2022/01/07 07:07:55;;;;;;;21.50;9.90;;;0.60;99.90;;;;;;5073489;28;20470;-75
2022/01/07 07:10:22;;;;;;;24.23;10.43;;;0.50;99.90;;;;;;5084493;28;20459;-74
2022/01/07 07:12:50;;;;;;;19.63;9.87;;;0.60;99.90;;;;;;5054928;28;20449;-76
2022/01/07 07:15:16;;;;;;;24.43;10.97;;;0.50;99.90;;;;;;5091327;28;20513;-75
2022/01/07 07:17:45;;;;;;;27.47;11.80;;;0.40;99.90;;;;;;5091125;28;20483;-75
2022/01/07 07:20:13;;;;;;;25.63;12.20;;;0.40;99.90;;;;;;5088447;28;20448;-77
2022/01/07 07:22:39;;;;;;;30.60;12.00;;;0.60;99.90;;;;;;5087863;28;20534;-76
2022/01/07 07:25:07;;;;;;;27.83;13.47;;;0.50;99.90;;;;;;5074997;28;20439;-76
2022/01/07 07:27:36;;;;;;;34.93;14.60;;;0.40;99.90;;;;;;5072761;28;20460;-76
2022/01/07 07:30:04;;;;;;;33.80;14.53;;;0.50;99.90;;;;;;5073326;28;20443;-75
2022/01/07 07:32:32;;;;;;;36.10;16.27;;;0.30;99.90;;;;;;5085914;28;20446;-75
2022/01/07 07:35:02;;;;;;;34.30;15.80;;;0.30;99.90;;;;;;5076471;28;20539;-76
2022/01/07 07:37:29;;;;;;;39.93;16.93;;;0.20;99.90;;;;;;5057802;28;20841;-76
2022/01/07 07:39:56;;;;;;;43.63;17.87;;;0.20;99.90;;;;;;5072188;28;20468;-75
2022/01/07 07:42:23;;;;;;;36.00;16.43;;;0.20;99.90;;;;;;5072504;28;20517;-75
2022/01/07 07:44:49;;;;;;;43.00;17.67;;;0.20;99.90;;;;;;5072179;28;20464;-75
2022/01/07 07:47:17;;;;;;;29.73;15.37;;;0.10;99.90;;;;;;5064289;28;20471;-75
2022/01/07 07:49:44;;;;;;;43.33;18.83;;;0.20;99.90;;;;;;5070098;28;20469;-74
2022/01/07 07:52:11;;;;;;;40.33;19.27;;;0.20;99.90;;;;;;5072108;28;20447;-73
2022/01/07 07:54:38;;;;;;;38.87;16.73;;;0.30;99.90;;;;;;5071573;28;20448;-74
2022/01/07 07:57:05;;;;;;;34.00;16.57;;;0.10;99.90;;;;;;5070087;28;20487;-74
2022/01/07 07:59:33;;;;;;;41.17;16.80;;;0.10;99.90;;;;;;5089700;28;20469;-74
2022/01/07 08:02:00;;;;;;;37.63;16.43;;;0.20;99.90;;;;;;5073656;28;20474;-74
2022/01/07 08:04:29;;;;;;;34.20;15.67;;;0.20;99.90;;;;;;5084702;28;20554;-74
2022/01/07 08:06:55;;;;;;;39.10;18.33;;;0.20;99.90;;;;;;5090315;28;20467;-74
2022/01/07 08:09:23;;;;;;;38.27;15.80;;;0.20;99.90;;;;;;5075396;28;20504;-74
2022/01/07 08:11:52;;;;;;;30.03;15.93;;;0.10;99.90;;;;;;5070964;28;20448;-74
2022/01/07 08:17:05;;;;;;;30.03;15.13;;;0.20;99.90;;;;;;5088985;28;20548;-74
2022/01/07 08:19:34;;;;;;;29.03;14.97;;;0.20;99.90;;;;;;5084484;28;20457;-75
2022/01/07 08:22:00;;;;;;;27.03;13.47;;;0.20;99.90;;;;;;5071610;28;20459;-75
2022/01/07 08:24:27;;;;;;;28.17;14.93;;;0.20;99.90;;;;;;5055906;28;20456;-75
2022/01/07 08:26:54;;;;;;;22.97;13.27;;;0.40;99.90;;;;;;5070505;28;20475;-75
2022/01/07 08:29:24;;;;;;;25.83;11.43;;;0.40;99.90;;;;;;5095430;22;20499;-71
2022/01/07 08:34:54;;;;;;;15.83;10.13;;;0.50;99.90;;;;;;5078687;28;20471;-71
2022/01/07 08:37:22;;;;;;;14.57;8.77;;;0.50;99.90;;;;;;5087536;28;20505;-69
2022/01/07 08:39:49;;;;;;;12.00;7.77;;;0.50;99.90;;;;;;5078243;28;20550;-73
2022/01/07 08:42:18;;;;;;;18.67;10.60;;;0.60;99.90;;;;;;5063601;28;20482;-74
2022/01/07 08:44:44;;;;;;;21.60;11.87;;;0.60;99.90;;;;;;5055139;28;20448;-73
2022/01/07 08:47:11;;;;;;;16.07;9.53;;;0.60;99.90;;;;;;5043788;28;20457;-71
2022/01/07 08:49:39;;;;;;;14.90;9.43;;;0.60;99.90;;;;;;5052726;28;20475;-72
2022/01/07 08:52:06;;;;;;;14.30;9.13;;;0.60;99.90;;;;;;5060051;28;20996;-72
2022/01/07 08:54:33;;;;;;;9.93;7.70;;;0.70;99.90;;;;;;5052324;28;20948;-73
2022/01/07 08:56:59;;;;;;;9.50;7.30;;;0.70;99.90;;;;;;5053946;28;20565;-74
2022/01/07 08:59:26;;;;;;;11.20;8.30;;;0.80;99.90;;;;;;5069235;28;20517;-71
2022/01/07 09:01:53;;;;;;;12.43;6.83;;;0.70;99.90;;;;;;5054311;28;20968;-73
2022/01/07 09:04:19;;;;;;;11.93;7.57;;;0.70;99.90;;;;;;5053803;28;20456;-72
2022/01/07 09:06:47;;;;;;;14.33;8.47;;;0.70;99.90;;;;;;5052861;28;20453;-72
2022/01/07 09:09:14;;;;;;;12.77;8.57;;;0.70;99.90;;;;;;5054803;28;20502;-71
2022/01/07 09:11:40;;;;;;;13.40;7.87;;;0.70;99.90;;;;;;5072639;28;20512;-71
2022/01/07 09:14:07;;;;;;;13.43;8.40;;;0.70;99.90;;;;;;5065871;28;20464;-71
2022/01/07 09:16:34;;;;;;;15.77;9.00;;;0.80;99.90;;;;;;5054813;28;20498;-71
2022/01/07 09:19:02;;;;;;;18.03;8.90;;;0.70;99.90;;;;;;5052009;28;20475;-72
2022/01/07 09:21:28;;;;;;;14.27;9.60;;;0.70;99.90;;;;;;5055127;28;20912;-71
2022/01/07 09:23:56;;;;;;;11.70;8.70;;;0.70;99.90;;;;;;5049964;28;20915;-73
2022/01/07 09:26:23;;;;;;;13.03;8.87;;;0.80;99.90;;;;;;5061224;28;20458;-72
2022/01/07 09:28:50;;;;;;;16.40;10.53;;;0.80;99.90;;;;;;5052622;28;20486;-72
2022/01/07 09:31:17;;;;;;;16.20;9.10;;;0.80;99.90;;;;;;5059187;28;20452;-71
2022/01/07 09:33:44;;;;;;;22.47;9.10;;;0.80;99.90;;;;;;5067679;28;20455;-70
2022/01/07 09:36:11;;;;;;;15.17;8.60;;;0.80;99.90;;;;;;5057880;28;20462;-71
2022/01/07 09:38:37;;;;;;;10.80;8.67;;;0.70;99.90;;;;;;5056674;28;20525;-71
2022/01/07 09:41:07;;;;;;;22.47;9.50;;;0.70;99.90;;;;;;5055643;28;20448;-70
2022/01/07 09:43:34;;;;;;;15.60;9.37;;;0.70;99.90;;;;;;5056218;28;20505;-70
2022/01/07 09:46:01;;;;;;;11.90;8.70;;;0.60;99.90;;;;;;5056471;28;21096;-71
2022/01/07 09:48:28;;;;;;;15.10;8.60;;;0.60;99.90;;;;;;5067410;28;20448;-71
2022/01/07 09:50:54;;;;;;;15.30;9.00;;;0.60;99.90;;;;;;5056715;28;20448;-71
2022/01/07 09:53:23;;;;;;;17.27;9.90;;;0.60;99.90;;;;;;5050661;28;20452;-71
2022/01/07 09:55:49;;;;;;;12.67;9.30;;;0.70;99.90;;;;;;5050907;28;20510;-72
2022/01/07 09:58:17;;;;;;;14.87;10.00;;;0.70;99.90;;;;;;5052463;28;20893;-70
2022/01/07 10:00:46;;;;;;;18.57;11.03;;;0.70;99.90;;;;;;5050877;28;20503;-70
2022/01/07 10:03:14;;;;;;;21.63;11.20;;;0.70;99.90;;;;;;5050769;28;20514;-71
2022/01/07 10:05:44;;;;;;;19.77;10.60;;;0.80;99.90;;;;;;5048770;28;20452;-71
2022/01/07 10:08:23;;;;;;;21.10;10.63;;;0.70;99.90;;;;;;5039355;28;20459;-70
2022/01/07 10:11:11;;;;;;;16.63;9.93;;;0.70;99.90;;;;;;5050509;28;20537;-71
2022/01/07 10:13:39;;;;;;;25.87;11.20;;;0.80;99.90;;;;;;5053473;28;20506;-71
2022/01/07 10:16:15;;;;;;;18.67;10.60;;;0.70;99.90;;;;;;5050559;28;20437;-71
2022/01/07 10:18:42;;;;;;;17.87;10.87;;;0.70;99.90;;;;;;5045085;28;20496;-71
2022/01/07 10:21:09;;;;;;;15.80;9.87;;;0.70;99.90;;;;;;5051869;28;20853;-72
2022/01/07 10:23:36;;;;;;;18.77;11.50;;;0.80;99.90;;;;;;5050868;28;20447;-71
2022/01/07 10:26:03;;;;;;;17.60;10.87;;;0.80;99.90;;;;;;5050941;28;20449;-71
2022/01/07 10:28:32;;;;;;;20.43;10.17;;;0.80;99.90;;;;;;5056241;28;20444;-72
2022/01/07 10:31:02;;;;;;;18.40;11.40;;;0.80;99.90;;;;;;5064805;28;20830;-71
2022/01/07 10:33:31;;;;;;;16.40;10.30;;;0.80;99.90;;;;;;5052451;28;20825;-72
2022/01/07 10:36:14;;;;;;;19.73;11.80;;;0.90;99.90;;;;;;5051222;28;20824;-73
2022/01/07 10:38:47;;;;;;;17.73;11.30;;;0.90;99.90;;;;;;5052788;28;20533;-73
2022/01/07 10:41:14;;;;;;;18.50;11.37;;;0.90;99.90;;;;;;5053234;28;20802;-72
2022/01/07 10:43:42;;;;;;;24.87;10.90;;;1.00;99.90;;;;;;5052424;28;20449;-72
2022/01/07 10:46:20;;;;;;;14.53;10.33;;;1.00;99.90;;;;;;5059754;28;20510;-73
2022/01/07 10:48:50;;;;;;;21.30;9.73;;;1.10;99.90;;;;;;5055878;28;20525;-70
2022/01/07 10:51:20;;;;;;;12.87;9.40;;;1.10;99.90;;;;;;5071076;28;20455;-71
2022/01/07 10:53:50;;;;;;;21.13;11.33;;;1.20;99.90;;;;;;5066510;28;20461;-70
2022/01/07 10:56:18;;;;;;;21.20;12.43;;;1.20;99.90;;;;;;5049940;28;20543;-71
2022/01/07 10:59:04;;;;;;;25.17;11.63;;;1.20;99.90;;;;;;5036952;28;20491;-70
2022/01/07 11:01:36;;;;;;;21.43;10.60;;;1.10;99.90;;;;;;5056704;28;20920;-70
2022/01/07 11:04:07;;;;;;;25.93;10.97;;;1.00;99.90;;;;;;5049073;28;20506;-71
2022/01/07 11:06:34;;;;;;;19.47;11.60;;;1.00;99.90;;;;;;5057462;28;20486;-70
2022/01/07 11:09:02;;;;;;;14.90;9.87;;;1.00;99.90;;;;;;5069634;28;20513;-71
2022/01/07 11:11:30;;;;;;;25.93;11.90;;;0.90;99.90;;;;;;5069759;28;20530;-71
2022/01/07 11:14:08;;;;;;;18.50;10.93;;;1.00;99.90;;;;;;5064108;28;20445;-72
2022/01/07 11:16:37;;;;;;;18.07;11.20;;;1.00;99.90;;;;;;5060089;28;21005;-70
2022/01/07 11:19:05;;;;;;;14.77;9.27;;;1.00;99.90;;;;;;5053537;28;21113;-70
2022/01/07 11:21:32;;;;;;;21.33;11.10;;;1.00;99.90;;;;;;5059093;28;20516;-69
2022/01/07 11:23:59;;;;;;;22.77;11.40;;;1.00;99.90;;;;;;5055673;28;20461;-70
2022/01/07 11:26:26;;;;;;;24.73;11.07;;;1.10;99.90;;;;;;5049093;28;20522;-70
2022/01/07 11:29:00;;;;;;;20.43;10.40;;;1.10;99.90;;;;;;5063431;28;20480;-70
2022/01/07 11:31:27;;;;;;;17.23;10.30;;;1.30;99.90;;;;;;5059305;28;20452;-71
2022/01/07 11:34:25;;;;;;;30.23;11.83;;;1.40;99.90;;;;;;5056407;28;20448;-70
2022/01/07 11:36:53;;;;;;;19.53;10.37;;;1.50;99.90;;;;;;5054545;28;20547;-70
2022/01/07 11:39:22;;;;;;;17.40;9.20;;;1.70;99.90;;;;;;5069657;28;20574;-70
2022/01/07 11:41:53;;;;;;;13.43;8.73;;;1.80;99.90;;;;;;5068824;28;20483;-73
2022/01/07 11:44:23;;;;;;;12.93;8.40;;;2.00;99.90;;;;;;5060684;28;20494;-70
2022/01/07 11:46:50;;;;;;;10.30;7.60;;;2.00;99.90;;;;;;5050154;28;20967;-72
2022/01/07 11:49:36;;;;;;;9.83;7.30;;;2.00;99.90;;;;;;5065524;28;20476;-70
2022/01/07 11:52:32;;;;;;;17.70;7.97;;;2.00;99.90;;;;;;5057711;28;20456;-70
2022/01/07 11:55:22;;;;;;;8.93;7.13;;;1.90;99.90;;;;;;5041529;28;20459;-70
2022/01/07 11:57:50;;;;;;;11.00;7.40;;;1.90;99.90;;;;;;5050074;28;20538;-69
2022/01/07 12:00:53;;;;;;;14.07;9.80;;;1.90;99.90;;;;;;5064730;28;20835;-69
2022/01/07 12:03:31;;;;;;;20.60;10.73;;;1.90;99.90;;;;;;5041359;28;20465;-72
2022/01/07 12:06:00;;;;;;;20.77;11.00;;;1.90;99.90;;;;;;5052285;28;20451;-69
2022/01/07 12:08:40;;;;;;;17.17;10.40;;;1.80;99.90;;;;;;5065746;28;20501;-69
2022/01/07 12:11:10;;;;;;;16.60;9.30;;;1.80;99.90;;;;;;5069693;28;20483;-69
2022/01/07 12:13:39;;;;;;;16.63;9.80;;;1.80;99.90;;;;;;5065366;28;20502;-69
2022/01/07 12:16:06;;;;;;;13.30;9.40;;;1.80;99.90;;;;;;5053631;28;20444;-69
2022/01/07 12:18:34;;;;;;;14.53;9.00;;;1.80;99.90;;;;;;5049530;28;21002;-70
2022/01/07 12:21:03;;;;;;;15.57;10.10;;;1.80;99.90;;;;;;5049713;28;20944;-70
2022/01/07 12:23:30;;;;;;;17.77;9.80;;;1.80;99.90;;;;;;5059864;28;20517;-70
2022/01/07 12:26:03;;;;;;;17.10;9.80;;;1.80;99.90;;;;;;5048902;28;20881;-71
2022/01/07 12:28:35;;;;;;;14.00;8.80;;;1.80;99.90;;;;;;5066648;28;20458;-70
2022/01/07 12:31:07;;;;;;;13.07;8.37;;;1.80;99.90;;;;;;5078579;28;20432;-70
2022/01/07 12:33:34;;;;;;;15.40;9.27;;;1.90;99.90;;;;;;5082356;28;20625;-70
2022/01/07 12:36:02;;;;;;;10.93;8.30;;;1.90;99.90;;;;;;5080845;28;20706;-69
2022/01/07 12:38:28;;;;;;;10.70;7.40;;;1.90;99.90;;;;;;5093772;28;20475;-69
2022/01/07 12:40:59;;;;;;;12.13;7.63;;;2.00;99.90;;;;;;5086652;28;20452;-70
2022/01/07 12:43:35;;;;;;;11.83;7.50;;;2.10;99.90;;;;;;5070254;28;20483;-70
2022/01/07 12:46:03;;;;;;;11.80;7.37;;;2.10;99.90;;;;;;5054773;28;20451;-70
2022/01/07 12:48:38;;;;;;;19.40;8.87;;;2.00;99.90;;;;;;5069571;28;20505;-71